createdAt,value
2023-03-07T00:02:05.397Z,97655.55
2023-03-07T00:05:14.949Z,97653.86
2023-03-07T00:08:21.197Z,97653.61
2023-03-07T00:11:27.857Z,97652.27
2023-03-07T00:14:34.334Z,97652.76
2023-03-07T00:17:40.829Z,97651.85
2023-03-07T00:20:47.135Z,97648.42
2023-03-07T00:23:53.354Z,97645.08
2023-03-07T00:26:59.572Z,97645.26
2023-03-07T00:30:07.208Z,97642.05
2023-03-07T00:33:13.458Z,97642.00
2023-03-07T00:36:21.202Z,97641.80
2023-03-07T00:39:27.528Z,97641.41
2023-03-07T00:42:32.122Z,97636.90
2023-03-07T00:45:38.465Z,97634.28
2023-03-07T00:48:44.944Z,97632.05
2023-03-07T00:51:51.308Z,97628.65
2023-03-07T00:54:55.884Z,97626.98
2023-03-07T00:58:02.172Z,97624.23
2023-03-07T01:01:07.659Z,97620.73
2023-03-07T01:04:14.134Z,97615.55
2023-03-07T01:07:20.321Z,97610.58
2023-03-07T01:10:29.330Z,97608.12
2023-03-07T01:13:37.131Z,97610.65
2023-03-07T01:16:43.338Z,97607.14
2023-03-07T01:19:49.597Z,97600.41
2023-03-07T01:22:55.850Z,97599.83
2023-03-07T01:26:00.349Z,97600.08
2023-03-07T01:29:09.983Z,97603.37
2023-03-07T01:32:16.336Z,97600.42
2023-03-07T01:35:20.895Z,97596.27
2023-03-07T01:38:28.368Z,97587.77
2023-03-07T01:41:35.241Z,97587.06
2023-03-07T01:45:06.333Z,97587.95
2023-03-07T01:48:12.607Z,97586.52
2023-03-07T01:51:17.852Z,97582.84
2023-03-07T01:54:25.941Z,97582.73
2023-03-07T01:57:37.058Z,97580.91
2023-03-07T02:00:45.632Z,97578.06
2023-03-07T02:03:55.322Z,97578.86
2023-03-07T02:07:03.912Z,97574.26
2023-03-07T02:10:12.107Z,97571.61
2023-03-07T02:13:18.807Z,97573.79
2023-03-07T02:16:25.075Z,97576.27
2023-03-07T02:19:36.049Z,97575.10
2023-03-07T02:22:43.167Z,97576.39
2023-03-07T02:25:56.205Z,97576.75
2023-03-07T02:29:03.971Z,97576.75
2023-03-07T02:32:11.251Z,97579.23
2023-03-07T02:35:21.046Z,97581.95
2023-03-07T02:38:27.810Z,97584.84
2023-03-07T02:41:36.005Z,97585.52
2023-03-07T02:44:45.255Z,97587.78
2023-03-07T02:47:51.484Z,97583.63
2023-03-07T02:50:57.760Z,97582.75
2023-03-07T02:54:02.262Z,97580.70
2023-03-07T02:57:09.397Z,97582.13
2023-03-07T03:00:17.435Z,97581.55
2023-03-07T03:03:23.780Z,97582.03
2023-03-07T03:06:28.278Z,97582.63
2023-03-07T03:09:34.564Z,97577.13
2023-03-07T03:12:39.164Z,97584.35
2023-03-07T03:15:45.464Z,97586.02
2023-03-07T03:18:49.957Z,97582.77
2023-03-07T03:21:56.232Z,97581.11
2023-03-07T03:25:00.747Z,97579.65
2023-03-07T03:28:07.443Z,97578.52
2023-03-07T03:31:15.506Z,97580.97
2023-03-07T03:34:21.815Z,97576.08
2023-03-07T03:37:27.251Z,97577.38
2023-03-07T03:40:33.565Z,97577.86
2023-03-07T03:43:38.144Z,97575.08
2023-03-07T03:46:44.478Z,97580.60
2023-03-07T03:49:49.044Z,97580.49
2023-03-07T03:52:55.300Z,97580.77
2023-03-07T03:56:04.133Z,97582.00
2023-03-07T03:59:10.368Z,97580.41
2023-03-07T04:02:17.106Z,97577.46
2023-03-07T04:05:23.691Z,97583.33
2023-03-07T04:08:29.916Z,97584.95
2023-03-07T04:11:36.702Z,97584.45
2023-03-07T04:14:42.971Z,97582.65
2023-03-07T04:17:47.892Z,97580.80
2023-03-07T04:20:54.982Z,97578.25
2023-03-07T04:24:01.133Z,97580.60
2023-03-07T04:27:07.774Z,97581.30
2023-03-07T04:30:15.255Z,97581.97
2023-03-07T04:33:21.881Z,97582.39
2023-03-07T04:36:28.569Z,97583.38
2023-03-07T04:39:34.805Z,97577.86
2023-03-07T04:42:41.103Z,97574.67
2023-03-07T04:45:45.637Z,97573.64
2023-03-07T04:48:51.879Z,97578.38
2023-03-07T04:51:56.510Z,97571.39
2023-03-07T04:55:02.798Z,97573.18
2023-03-07T04:58:11.038Z,97574.79
2023-03-07T05:01:17.283Z,97569.92
2023-03-07T05:04:21.818Z,97570.33
2023-03-07T05:07:30.035Z,97570.39
2023-03-07T05:10:37.212Z,97570.02
2023-03-07T05:13:43.493Z,97569.32
2023-03-07T05:16:48.478Z,97569.40
2023-03-07T05:19:55.843Z,97571.26
2023-03-07T05:23:02.564Z,97572.10
2023-03-07T05:26:08.997Z,97577.35
2023-03-07T05:29:15.289Z,97576.73
2023-03-07T05:32:19.857Z,97577.64
2023-03-07T05:35:26.054Z,97576.79
2023-03-07T05:38:32.346Z,97575.90
2023-03-07T05:41:36.847Z,97571.83
2023-03-07T05:44:43.190Z,97574.02
2023-03-07T05:47:47.744Z,97574.79
2023-03-07T05:50:53.999Z,97573.42
2023-03-07T05:54:00.692Z,97572.73
2023-03-07T05:57:07.273Z,97575.17
2023-03-07T06:00:16.150Z,97576.09
2023-03-07T06:03:22.560Z,97576.48
2023-03-07T06:06:28.857Z,97580.03
2023-03-07T06:09:35.130Z,97576.84
2023-03-07T06:12:39.666Z,97573.67
2023-03-07T06:15:45.964Z,97570.70
2023-03-07T06:18:50.510Z,97575.19
2023-03-07T06:21:56.805Z,97577.31
2023-03-07T06:25:01.320Z,97575.70
2023-03-07T06:28:07.668Z,97572.77
2023-03-07T06:31:13.036Z,97573.70
2023-03-07T06:34:19.953Z,97574.44
2023-03-07T06:37:26.215Z,97571.05
2023-03-07T06:40:30.711Z,97574.61
2023-03-07T06:43:37.211Z,97576.96
2023-03-07T06:46:43.616Z,97573.96
2023-03-07T06:49:48.178Z,97569.54
2023-03-07T06:52:54.446Z,97574.99
2023-03-07T06:55:58.965Z,97571.63
2023-03-07T06:59:05.237Z,97570.88
2023-03-07T07:02:15.323Z,97570.86
2023-03-07T07:05:21.677Z,97565.75
2023-03-07T07:08:26.180Z,97565.92
2023-03-07T07:11:32.922Z,97561.00
2023-03-07T07:14:39.236Z,97559.20
2023-03-07T07:17:44.059Z,97563.98
2023-03-07T07:20:56.962Z,97556.33
2023-03-07T07:24:03.335Z,97555.52
2023-03-07T07:27:08.117Z,97550.52
2023-03-07T07:30:15.801Z,97547.09
2023-03-07T07:33:22.318Z,97550.06
2023-03-07T07:36:29.184Z,97547.83
2023-03-07T07:39:35.527Z,97545.20
2023-03-07T07:42:40.371Z,97546.20
2023-03-07T07:45:46.815Z,97547.81
2023-03-07T07:48:53.093Z,97551.91
2023-03-07T07:51:59.231Z,97545.33
2023-03-07T07:55:05.908Z,97541.58
2023-03-07T07:58:12.188Z,97542.98
2023-03-07T08:01:17.887Z,97544.75
2023-03-07T08:04:24.212Z,97542.76
2023-03-07T08:07:29.091Z,97543.10
2023-03-07T08:10:35.702Z,97542.77
2023-03-07T08:13:42.116Z,97539.05
2023-03-07T08:16:47.064Z,97537.18
2023-03-07T08:19:53.233Z,97539.80
2023-03-07T08:22:59.475Z,97540.23
2023-03-07T08:26:10.916Z,97540.56
2023-03-07T08:29:17.208Z,97541.54
2023-03-07T08:32:23.676Z,97543.41
2023-03-07T08:35:32.229Z,97540.77
2023-03-07T08:38:38.794Z,97540.98
2023-03-07T08:41:45.120Z,97538.49
2023-03-07T08:44:49.661Z,97535.63
2023-03-07T08:47:57.483Z,97533.25
2023-03-07T08:51:09.605Z,97533.46
2023-03-07T08:54:16.118Z,97532.13
2023-03-07T08:57:22.441Z,97527.02
2023-03-07T09:00:27.566Z,97523.11
2023-03-07T09:03:33.934Z,97524.14
2023-03-07T09:06:38.440Z,97524.89
2023-03-07T09:09:45.028Z,97527.65
2023-03-07T09:12:51.984Z,97524.68
2023-03-07T09:15:58.266Z,97518.91
2023-03-07T09:19:02.915Z,97517.65
2023-03-07T09:22:09.208Z,97512.83
2023-03-07T09:25:16.175Z,97510.98
2023-03-07T09:28:22.404Z,97513.04
2023-03-07T09:31:28.906Z,97514.16
2023-03-07T09:34:35.443Z,97510.64
2023-03-07T09:37:39.961Z,97510.52
2023-03-07T09:40:48.951Z,97513.05
2023-03-07T09:44:05.608Z,97510.03
2023-03-07T09:47:29.773Z,97507.47
2023-03-07T09:50:49.273Z,97502.63
2023-03-07T09:54:01.484Z,97497.25
2023-03-07T09:57:17.372Z,97492.20
2023-03-07T10:00:29.398Z,97489.95
2023-03-07T10:03:43.261Z,97490.95
2023-03-07T10:06:57.974Z,97484.56
2023-03-07T10:10:07.867Z,97473.77
2023-03-07T10:13:26.595Z,97473.09
2023-03-07T10:16:42.736Z,97474.94
2023-03-07T10:19:52.421Z,97476.81
2023-03-07T10:23:07.660Z,97471.54
2023-03-07T10:26:19.397Z,97472.30
2023-03-07T10:29:31.207Z,97473.02
2023-03-07T10:32:42.137Z,97471.27
2023-03-07T10:35:55.658Z,97466.34
2023-03-07T10:39:07.922Z,97466.30
2023-03-07T10:42:16.783Z,97463.80
2023-03-07T10:45:23.622Z,97459.21
2023-03-07T10:48:31.461Z,97451.83
2023-03-07T10:51:51.708Z,97450.52
2023-03-07T10:55:18.164Z,97445.08
2023-03-07T10:58:26.993Z,97441.14
2023-03-07T11:01:33.947Z,97434.92
2023-03-07T11:04:48.727Z,97431.95
2023-03-07T11:07:55.159Z,97431.48
2023-03-07T11:11:00.034Z,97430.60
2023-03-07T11:14:14.766Z,97423.95
2023-03-07T11:17:24.331Z,97418.86
2023-03-07T11:20:48.016Z,97416.96
2023-03-07T11:24:02.105Z,97416.23
2023-03-07T11:27:21.333Z,97413.03
2023-03-07T11:30:34.744Z,97407.98
2023-03-07T11:34:00.010Z,97403.25
2023-03-07T11:37:31.172Z,97401.46
2023-03-07T11:40:44.412Z,97395.73
2023-03-07T11:43:59.874Z,97395.03
2023-03-07T11:47:39.391Z,97397.00
2023-03-07T11:50:50.766Z,97391.73
2023-03-07T11:54:12.811Z,97382.99
2023-03-07T11:57:27.775Z,97378.81
2023-03-07T12:00:39.020Z,97378.17
2023-03-07T12:04:12.046Z,97373.58
2023-03-07T12:07:42.904Z,97371.14
2023-03-07T12:11:00.386Z,97368.05
2023-03-07T12:14:18.624Z,97364.02
2023-03-07T12:17:37.742Z,97367.16
2023-03-07T12:20:55.559Z,97371.36
2023-03-07T12:24:04.764Z,97367.75
2023-03-07T12:27:19.180Z,97368.48
2023-03-07T12:30:36.303Z,97363.35
2023-03-07T12:33:53.790Z,97366.10
2023-03-07T12:37:04.401Z,97359.64
2023-03-07T12:40:21.729Z,97360.89
2023-03-07T12:43:35.242Z,97356.58
2023-03-07T12:46:48.836Z,97355.52
2023-03-07T12:50:01.001Z,97349.59
2023-03-07T12:53:12.601Z,97343.64
2023-03-07T12:56:23.516Z,97348.06
2023-03-07T12:59:30.454Z,97342.70
2023-03-07T13:02:41.889Z,97341.60
2023-03-07T13:05:49.156Z,97338.05
2023-03-07T13:08:59.899Z,97342.21
2023-03-07T13:12:31.293Z,97342.11
2023-03-07T13:16:06.882Z,97342.52
2023-03-07T13:19:52.390Z,97342.38
2023-03-07T13:23:01.346Z,97339.64
2023-03-07T13:26:13.302Z,97331.40
2023-03-07T13:29:39.652Z,97333.77
2023-03-07T13:33:03.401Z,97336.36
2023-03-07T13:36:38.023Z,97330.52
2023-03-07T13:40:06.472Z,97328.91
2023-03-07T13:43:56.803Z,97324.45
2023-03-07T13:47:05.004Z,97324.25
2023-03-07T13:50:40.495Z,97323.04
2023-03-07T13:53:50.186Z,97313.67
2023-03-07T13:56:56.531Z,97315.35
2023-03-07T14:00:04.683Z,97313.74
2023-03-07T14:03:29.458Z,97315.30
2023-03-07T14:06:39.004Z,97312.66
2023-03-07T14:09:48.817Z,97310.95
2023-03-07T14:13:21.472Z,97312.77
2023-03-07T14:16:49.080Z,97310.85
2023-03-07T14:20:09.246Z,97304.66
2023-03-07T14:23:30.015Z,97302.31
2023-03-07T14:26:39.863Z,97298.61
2023-03-07T14:29:54.115Z,97295.24
2023-03-07T14:33:00.983Z,97290.62
2023-03-07T14:36:20.070Z,97284.70
2023-03-07T14:39:29.985Z,97283.44
2023-03-07T14:42:44.751Z,97278.44
2023-03-07T14:45:59.872Z,97275.45
2023-03-07T14:49:18.783Z,97275.80
2023-03-07T14:52:31.349Z,97277.45
2023-03-07T14:55:42.711Z,97272.91
2023-03-07T14:58:53.792Z,97276.20
2023-03-07T15:02:00.838Z,97280.27
2023-03-07T15:05:15.471Z,97279.68
2023-03-07T15:08:24.244Z,97282.88
2023-03-07T15:11:36.213Z,97282.41
2023-03-07T15:14:48.839Z,97280.80
2023-03-07T15:17:57.417Z,97278.22
2023-03-07T15:21:05.480Z,97274.46
2023-03-07T15:24:22.846Z,97272.17
2023-03-07T15:27:31.863Z,97268.88
2023-03-07T15:30:39.503Z,97266.15
2023-03-07T15:33:45.924Z,97260.95
2023-03-07T15:36:50.415Z,97260.49
2023-03-07T15:40:01.576Z,97260.61
2023-03-07T15:43:25.994Z,97266.70
2023-03-07T15:46:34.234Z,97260.80
2023-03-07T15:49:46.078Z,97258.06
2023-03-07T15:52:56.130Z,97261.98
2023-03-07T15:56:05.184Z,97264.95
2023-03-07T15:59:29.387Z,97266.23
2023-03-07T16:02:45.434Z,97258.77
2023-03-07T16:05:50.375Z,97256.74
2023-03-07T16:08:56.676Z,97258.85
2023-03-07T16:12:01.414Z,97253.58
2023-03-07T16:15:14.688Z,97255.52
2023-03-07T16:18:29.165Z,97255.56
2023-03-07T16:21:35.349Z,97262.65
2023-03-07T16:24:41.665Z,97264.36
2023-03-07T16:27:48.356Z,97266.65
2023-03-07T16:30:54.589Z,97270.48
2023-03-07T16:34:01.466Z,97272.64
2023-03-07T16:37:08.441Z,97269.42
2023-03-07T16:40:17.243Z,97267.23
2023-03-07T16:43:34.794Z,97264.96
2023-03-07T16:46:43.055Z,97266.60
2023-03-07T16:49:53.107Z,97260.56
2023-03-07T16:52:59.523Z,97259.33
2023-03-07T16:56:04.171Z,97266.81
2023-03-07T16:59:14.730Z,97270.83
2023-03-07T17:02:22.405Z,97279.04
2023-03-07T17:05:30.593Z,97277.20
2023-03-07T17:08:36.925Z,97276.40
2023-03-07T17:11:42.686Z,97284.11
2023-03-07T17:14:49.445Z,97282.91
2023-03-07T17:17:56.201Z,97288.39
2023-03-07T17:21:02.489Z,97290.85
2023-03-07T17:24:09.534Z,97292.15
2023-03-07T17:27:15.873Z,97288.91
2023-03-07T17:30:22.617Z,97288.15
2023-03-07T17:33:28.953Z,97285.15
2023-03-07T17:36:33.568Z,97285.53
2023-03-07T17:39:40.824Z,97286.08
2023-03-07T17:42:49.321Z,97281.30
2023-03-07T17:45:55.600Z,97281.25
2023-03-07T17:49:01.863Z,97279.09
2023-03-07T17:52:09.762Z,97275.50
2023-03-07T17:55:18.061Z,97271.39
2023-03-07T17:58:24.231Z,97269.39
2023-03-07T18:01:31.130Z,97267.45
2023-03-07T18:04:37.424Z,97255.98
2023-03-07T18:07:43.903Z,97248.42
2023-03-07T18:10:50.011Z,97241.23
2023-03-07T18:13:56.792Z,97238.05
2023-03-07T18:17:03.413Z,97241.93
2023-03-07T18:20:13.262Z,97245.98
2023-03-07T18:23:19.449Z,97239.16
2023-03-07T18:26:26.025Z,97226.38
2023-03-07T18:29:33.086Z,97227.25
2023-03-07T18:32:39.433Z,97222.64
2023-03-07T18:35:44.074Z,97215.09
2023-03-07T18:38:50.950Z,97215.61
2023-03-07T18:41:57.353Z,97214.17
2023-03-07T18:45:02.018Z,97212.68
2023-03-07T18:48:08.688Z,97207.38
2023-03-07T18:51:17.806Z,97204.52
2023-03-07T18:54:24.084Z,97198.70
2023-03-07T18:57:30.366Z,97200.02
2023-03-07T19:00:35.051Z,97194.13
2023-03-07T19:03:41.691Z,97191.20
2023-03-07T19:06:48.698Z,97195.77
2023-03-07T19:09:55.118Z,97194.40
2023-03-07T19:13:01.275Z,97193.70
2023-03-07T19:16:10.417Z,97190.44
2023-03-07T19:19:16.780Z,97188.38
2023-03-07T19:22:26.432Z,97190.89
2023-03-07T19:25:35.382Z,97182.13
2023-03-07T19:28:42.072Z,97177.37
2023-03-07T19:31:48.463Z,97167.74
2023-03-07T19:38:23.555Z,97157.60
2023-03-07T19:41:31.453Z,97162.73
2023-03-07T19:44:37.767Z,97167.04
2023-03-07T19:47:42.247Z,97165.73
2023-03-07T19:50:48.519Z,97167.94
2023-03-07T19:53:57.458Z,97169.77
2023-03-07T19:57:04.020Z,97163.89
2023-03-07T20:00:13.764Z,97161.94
2023-03-07T20:03:21.174Z,97159.80
2023-03-07T20:06:29.650Z,97163.47
2023-03-07T20:09:35.932Z,97159.64
2023-03-07T20:12:42.264Z,97158.86
2023-03-07T20:15:51.738Z,97153.78
2023-03-07T20:18:59.693Z,97151.64
2023-03-07T20:22:06.850Z,97154.63
2023-03-07T20:25:14.576Z,97154.34
2023-03-07T20:28:20.863Z,97156.53
2023-03-07T20:31:28.045Z,97158.48
2023-03-07T20:34:35.451Z,97158.94
2023-03-07T20:37:41.863Z,97160.97
2023-03-07T20:40:46.381Z,97158.66
2023-03-07T20:43:53.881Z,97158.54
2023-03-07T20:47:00.175Z,97164.28
2023-03-07T20:50:07.167Z,97157.48
2023-03-07T20:53:13.515Z,97157.93
2023-03-07T20:56:18.557Z,97159.39
2023-03-07T20:59:24.883Z,97154.61
2023-03-07T21:02:29.443Z,97154.07
2023-03-07T21:05:35.915Z,97154.23
2023-03-07T21:08:42.306Z,97151.41
2023-03-07T21:11:47.579Z,97153.13
2023-03-07T21:14:53.796Z,97150.51
2023-03-07T21:18:00.360Z,97151.79
2023-03-07T21:21:08.743Z,97149.77
2023-03-07T21:24:15.719Z,97150.52
2023-03-07T21:27:22.216Z,97147.97
2023-03-07T21:30:28.548Z,97148.16
2023-03-07T21:33:33.946Z,97144.76
2023-03-07T21:36:41.097Z,97140.23
2023-03-07T21:39:47.355Z,97137.45
2023-03-07T21:42:53.644Z,97136.17
2023-03-07T21:45:58.217Z,97138.78
2023-03-07T21:49:04.629Z,97139.23
2023-03-07T21:52:09.182Z,97133.42
2023-03-07T21:55:16.518Z,97132.37
2023-03-07T21:58:23.085Z,97132.88
2023-03-07T22:01:30.763Z,97129.64
2023-03-07T22:04:37.177Z,97129.54
2023-03-07T22:07:43.629Z,97123.96
2023-03-07T22:10:56.893Z,97126.94
2023-03-07T22:14:03.396Z,97131.83
2023-03-07T22:17:10.055Z,97131.90
2023-03-07T22:20:16.735Z,97133.10
2023-03-07T22:23:23.257Z,97132.05
2023-03-07T22:26:30.708Z,97129.80
2023-03-07T22:29:37.080Z,97123.98
2023-03-07T22:32:41.662Z,97123.04
2023-03-07T22:35:55.996Z,97121.79
2023-03-07T22:39:02.382Z,97121.94
2023-03-07T22:42:09.516Z,97123.98
2023-03-07T22:45:17.339Z,97117.07
2023-03-07T22:48:23.732Z,97111.77
2023-03-07T22:51:28.514Z,97111.20
2023-03-07T22:54:39.303Z,97110.05
2023-03-07T22:57:45.657Z,97110.45
2023-03-07T23:00:50.272Z,97108.02
2023-03-07T23:03:57.856Z,97110.82
2023-03-07T23:07:04.233Z,97115.91
2023-03-07T23:10:09.358Z,97115.45
2023-03-07T23:13:17.193Z,97114.30
2023-03-07T23:16:25.889Z,97114.20
2023-03-07T23:19:32.348Z,97111.16
2023-03-07T23:22:40.841Z,97115.48
2023-03-07T23:25:47.376Z,97113.91
2023-03-07T23:28:53.728Z,97114.45
2023-03-07T23:31:58.623Z,97113.95
2023-03-07T23:35:05.550Z,97111.70
2023-03-07T23:38:14.385Z,97108.46
2023-03-07T23:41:21.609Z,97113.38
2023-03-07T23:44:28.000Z,97117.73
2023-03-07T23:47:32.661Z,97116.69
2023-03-07T23:50:39.004Z,97120.45
2023-03-07T23:53:44.070Z,97121.33
2023-03-07T23:56:50.395Z,97121.04
2023-03-07T23:59:55.183Z,97127.03
